Time;durP1;ratioP1;P1;durP2;ratioP2;P2;SDS_P1;SDS_P2;PMS_P1;PMS_P2;Temp;Humidity;BMP_temperature;BMP_pressure;BME280_temperature;BME280_humidity;BME280_pressure;Samples;Min_cycle;Max_cycle;Signal;HPM_P1;HPM_P2
2022/05/23 00:02:12;;;;;;;1.70;1.40;;;;;;;11.64;76.56;99204.52;1694779;82;21939;-72
2022/05/23 00:04:39;;;;;;;1.40;1.27;;;;;;;11.63;76.30;99200.22;1697088;82;20959;-75
2022/05/23 00:07:23;;;;;;;2.98;1.50;;;;;;;11.59;76.18;99206.33;1696925;82;20995;-71
2022/05/23 00:09:50;;;;;;;2.87;1.47;;;;;;;11.59;76.11;99213.43;1690754;83;21378;-74
2022/05/23 00:12:17;;;;;;;1.55;1.30;;;;;;;11.58;75.97;99210.42;1702944;84;21063;-72
2022/05/23 00:14:45;;;;;;;1.70;1.40;;;;;;;11.58;75.88;99214.39;1709398;83;21016;-72
2022/05/23 00:17:13;;;;;;;1.52;1.40;;;;;;;11.57;75.75;99219.34;1699185;82;21515;-72
2022/05/23 00:19:40;;;;;;;2.50;1.60;;;;;;;11.57;75.72;99224.63;1707634;84;21001;-72
2022/05/23 00:22:09;;;;;;;1.90;1.57;;;;;;;11.55;75.54;99223.97;1717251;82;20965;-74
2022/05/23 00:24:36;;;;;;;2.22;1.30;;;;;;;11.54;75.54;99224.46;1709879;82;21072;-71
2022/05/23 00:27:04;;;;;;;3.30;1.30;;;;;;;11.54;75.35;99225.78;1699906;82;22453;-72
2022/05/23 00:29:31;;;;;;;1.80;1.50;;;;;;;11.55;75.10;99226.61;1683977;82;21023;-71
2022/05/23 00:37:29;;;;;;;3.80;1.60;;;;;;;11.54;74.30;99230.25;1706084;82;21123;-70
2022/05/23 00:39:57;;;;;;;2.12;1.60;;;;;;;11.55;74.13;99232.73;1699570;82;22581;-70
2022/05/23 00:45:16;;;;;;;2.75;1.50;;;;;;;11.56;73.72;99237.03;1699810;82;21007;-71
2022/05/23 00:47:45;;;;;;;1.40;1.30;;;;;;;11.56;73.58;99240.16;1697232;84;21080;-70
2022/05/23 00:50:15;;;;;;;2.00;1.45;;;;;;;11.53;73.31;99243.96;1706253;83;21020;-71
2022/05/23 00:52:48;;;;;;;4.08;1.37;;;;;;;11.51;73.14;99245.11;1709315;82;21087;-70
2022/05/23 00:55:23;;;;;;;2.02;1.37;;;;;;;11.50;73.03;99239.48;1709296;84;21000;-71
2022/05/23 00:57:55;;;;;;;1.82;1.45;;;;;;;11.50;72.89;99240.31;1709496;82;21325;-69
2022/05/23 01:00:22;;;;;;;2.65;1.57;;;;;;;11.49;72.71;99241.80;1707571;84;20969;-69
2022/05/23 01:02:56;;;;;;;2.77;1.40;;;;;;;11.51;72.56;99249.08;1683894;82;22210;-70
2022/05/23 01:05:22;;;;;;;;;;;;;;;11.50;72.48;99239.48;1702651;84;21892;-70
2022/05/23 01:07:50;;;;;;;2.33;1.50;;;;;;;11.53;72.51;99239.17;1697469;82;20544;-70
2022/05/23 01:10:18;;;;;;;2.77;1.52;;;;;;;11.53;72.48;99237.84;1681490;83;21056;-70
2022/05/23 01:12:45;;;;;;;2.83;1.35;;;;;;;11.51;72.41;99241.14;1695641;83;21005;-70
2022/05/23 01:15:26;;;;;;;4.58;1.50;;;;;;;11.50;72.40;99240.81;1698932;82;21072;-70
2022/05/23 01:17:54;;;;;;;2.00;1.40;;;;;;;11.49;72.31;99243.12;1699563;82;21966;-69
2022/05/23 01:20:21;;;;;;;1.62;1.42;;;;;;;11.47;72.36;99237.95;1701317;82;20941;-70
2022/05/23 01:23:12;;;;;;;1.77;1.50;;;;;;;11.48;72.42;99247.55;1692156;84;20948;-70
2022/05/23 01:25:47;;;;;;;2.08;1.50;;;;;;;11.49;72.40;99250.55;1690443;84;21032;-71
2022/05/23 01:28:16;;;;;;;1.87;1.40;;;;;;;11.49;72.40;99253.70;1682177;83;21408;-71
2022/05/23 01:30:44;;;;;;;2.70;1.80;;;;;;;11.50;72.42;99255.35;1706405;82;22670;-70
2022/05/23 01:33:13;;;;;;;2.27;1.62;;;;;;;11.50;72.36;99254.03;1713630;81;21111;-69
2022/05/23 01:35:41;;;;;;;2.35;1.75;;;;;;;11.44;72.13;99257.61;1694138;84;21450;-69
2022/05/23 01:38:09;;;;;;;2.55;1.80;;;;;;;11.44;72.24;99254.97;1706744;82;20993;-69
2022/05/23 01:40:38;;;;;;;2.40;1.50;;;;;;;11.47;72.30;99256.47;1706595;82;20975;-69
2022/05/23 01:43:06;;;;;;;1.62;1.42;;;;;;;11.50;72.29;99257.50;1709785;84;21910;-69
2022/05/23 01:45:36;;;;;;;3.20;1.62;;;;;;;11.52;72.24;99259.49;1709431;83;21064;-69
2022/05/23 01:48:14;;;;;;;2.08;1.60;;;;;;;11.52;72.23;99257.34;1704464;82;20997;-69
2022/05/23 01:50:41;;;;;;;2.75;1.67;;;;;;;11.50;72.18;99263.28;1707939;84;21715;-69
2022/05/23 01:53:11;;;;;;;2.40;1.80;;;;;;;11.49;72.25;99255.84;1707947;84;21407;-69
2022/05/23 01:55:40;;;;;;;4.80;1.67;;;;;;;11.46;72.18;99254.81;1702269;82;22507;-69
2022/05/23 01:58:10;;;;;;;2.62;1.50;;;;;;;11.42;72.18;99254.30;1653967;84;21040;-67
2022/05/23 02:03:24;;;;;;;3.75;1.62;;;;;;;11.38;72.26;99256.90;1617989;86;21500;-68
2022/05/23 02:05:54;;;;;;;1.85;1.50;;;;;;;11.38;72.38;99260.03;1667774;84;21030;-69
2022/05/23 02:08:21;;;;;;;2.58;1.80;;;;;;;11.37;72.41;99261.02;1652843;86;21530;-70
2022/05/23 02:10:49;;;;;;;3.05;1.60;;;;;;;11.35;72.53;99263.83;1653649;86;21354;-68
2022/05/23 02:13:18;;;;;;;4.25;1.62;;;;;;;11.36;72.59;99265.48;1644308;86;20982;-70
2022/05/23 02:15:45;;;;;;;1.98;1.60;;;;;;;11.38;72.61;99268.80;1639610;85;21036;-71
2022/05/23 02:18:15;;;;;;;2.52;1.77;;;;;;;11.41;72.73;99269.00;1652300;85;20983;-70
2022/05/23 02:20:43;;;;;;;1.90;1.60;;;;;;;11.43;72.75;99268.35;1652130;86;21829;-70
2022/05/23 02:23:10;;;;;;;2.65;1.60;;;;;;;11.43;72.77;99270.50;1665608;85;21517;-71
2022/05/23 02:25:37;;;;;;;2.60;1.60;;;;;;;11.45;72.79;99271.17;1640337;85;21024;-72
2022/05/23 02:28:23;;;;;;;2.83;1.70;;;;;;;11.47;72.76;99273.16;1652567;86;21461;-71
2022/05/23 02:30:49;;;;;;;2.65;1.60;;;;;;;11.50;72.80;99276.51;1670268;84;21550;-72
2022/05/23 02:33:35;;;;;;;3.12;1.75;;;;;;;11.51;72.87;99275.52;1682118;83;22568;-72
2022/05/23 02:36:10;;;;;;;3.37;1.85;;;;;;;11.49;72.83;99278.81;1674825;83;21064;-73
2022/05/23 02:38:36;;;;;;;2.00;1.70;;;;;;;11.45;72.88;99284.39;1629566;83;21184;-72
2022/05/23 02:41:03;;;;;;;4.12;2.00;;;;;;;11.46;72.93;99285.22;1690575;84;21012;-70
2022/05/23 02:43:33;;;;;;;1.92;1.72;;;;;;;11.46;72.96;99284.72;1727647;81;21023;-71
2022/05/23 02:45:59;;;;;;;2.15;1.47;;;;;;;11.48;72.94;99287.21;1724880;83;21933;-70
2022/05/23 02:48:26;;;;;;;2.95;1.70;;;;;;;11.45;72.91;99292.33;1725921;81;20999;-70
2022/05/23 02:50:53;;;;;;;2.90;1.90;;;;;;;11.45;72.98;99294.14;1727604;83;21054;-69
2022/05/23 02:53:20;;;;;;;2.60;1.82;;;;;;;11.43;73.09;99295.62;1727084;83;21086;-69
2022/05/23 02:55:49;;;;;;;2.40;1.50;;;;;;;11.43;73.18;99295.62;1727949;81;20999;-70
2022/05/23 02:58:16;;;;;;;3.12;1.72;;;;;;;11.44;73.27;99286.70;1726635;83;21850;-70
2022/05/23 03:00:43;;;;;;;3.40;1.90;;;;;;;11.46;73.34;99289.19;1727975;81;21027;-70
2022/05/23 03:03:10;;;;;;;2.27;1.87;;;;;;;11.46;73.41;99293.98;1728202;81;21016;-70
2022/05/23 03:05:53;;;;;;;2.08;1.87;;;;;;;11.44;73.42;99295.95;1724660;81;20951;-71
2022/05/23 03:08:23;;;;;;;2.60;1.72;;;;;;;11.43;73.45;99304.05;1728655;81;21008;-76
2022/05/23 03:10:51;;;;;;;2.40;2.00;;;;;;;11.43;73.49;99310.66;1698612;84;22760;-72
2022/05/23 03:13:21;;;;;;;3.12;1.90;;;;;;;11.43;73.55;99311.98;1733504;80;20992;-72
2022/05/23 03:15:49;;;;;;;3.77;2.20;;;;;;;11.43;73.66;99311.48;1726682;81;21433;-72
2022/05/23 03:18:17;;;;;;;3.75;1.90;;;;;;;11.42;73.70;99313.79;1727270;83;21011;-72
2022/05/23 03:20:45;;;;;;;2.00;1.80;;;;;;;11.43;73.82;99315.94;1726246;83;20999;-72
2022/05/23 03:28:44;;;;;;;3.05;2.10;;;;;;;11.44;74.03;99318.42;1727159;82;20999;-72
2022/05/23 03:31:11;;;;;;;2.60;1.90;;;;;;;11.46;74.12;99316.45;1743159;80;20953;-71
2022/05/23 03:33:38;;;;;;;4.75;1.90;;;;;;;11.48;74.23;99317.62;1741460;82;21011;-72
2022/05/23 03:36:05;;;;;;;2.58;2.00;;;;;;;11.48;74.30;99318.94;1682226;84;21807;-72
2022/05/23 03:38:31;;;;;;;3.45;2.00;;;;;;;11.50;74.38;99320.97;1690485;84;20961;-72
2022/05/23 03:41:07;;;;;;;4.12;2.17;;;;;;;11.50;74.33;99320.14;1685045;85;20957;-72
2022/05/23 03:43:34;;;;;;;2.67;2.08;;;;;;;11.47;74.33;99322.08;1684789;83;21067;-72
2022/05/23 03:46:08;;;;;;;3.45;2.30;;;;;;;11.48;74.39;99326.88;1686732;83;21513;-71
2022/05/23 03:48:35;;;;;;;4.28;2.20;;;;;;;11.50;74.42;99324.10;1691897;84;21859;-69
2022/05/23 03:51:01;;;;;;;2.55;1.90;;;;;;;11.52;74.40;99324.28;1704793;84;20951;-70
2022/05/23 03:53:31;;;;;;;2.52;2.20;;;;;;;11.54;74.29;99326.77;1698981;83;21059;-70
2022/05/23 03:55:59;;;;;;;3.92;2.25;;;;;;;11.53;74.27;99331.72;1684960;84;21536;-71
2022/05/23 03:58:27;;;;;;;2.90;2.40;;;;;;;11.54;74.25;99336.85;1688196;83;21014;-69
2022/05/23 04:01:09;;;;;;;3.08;2.30;;;;;;;11.55;74.24;99329.75;1648979;85;21943;-69
2022/05/23 04:03:36;;;;;;;3.10;2.47;;;;;;;11.57;74.21;99337.86;1664060;84;21244;-70
2022/05/23 04:06:03;;;;;;;3.10;2.60;;;;;;;11.61;74.17;99337.08;1685169;84;21024;-70
2022/05/23 04:08:32;;;;;;;2.90;2.17;;;;;;;11.63;74.15;99347.83;1624202;87;21013;-69
2022/05/23 04:11:00;;;;;;;3.35;2.20;;;;;;;11.64;74.16;99341.55;1637229;85;20977;-70
2022/05/23 04:13:27;;;;;;;2.52;2.30;;;;;;;11.69;74.15;99341.11;1653583;85;21894;-70
2022/05/23 04:15:54;;;;;;;4.67;2.17;;;;;;;11.73;74.17;99339.31;1665734;85;21037;-69
2022/05/23 04:18:21;;;;;;;6.62;2.20;;;;;;;11.80;74.15;99351.47;1668761;86;20958;-69
2022/05/23 04:20:50;;;;;;;2.67;2.10;;;;;;;11.84;74.11;99346.20;1670364;84;21560;-71
2022/05/23 04:23:18;;;;;;;2.33;2.12;;;;;;;11.87;74.03;99345.91;1675377;84;20953;-70
2022/05/23 04:25:48;;;;;;;3.33;2.25;;;;;;;11.90;73.96;99352.20;1665917;85;21930;-70
2022/05/23 04:28:15;;;;;;;2.90;2.05;;;;;;;11.96;73.93;99360.83;1666281;84;21464;-70
2022/05/23 04:30:43;;;;;;;4.05;2.20;;;;;;;12.01;73.88;99354.59;1685874;84;21099;-69
2022/05/23 04:35:56;;;;;;;4.42;1.90;;;;;;;12.07;73.44;99364.23;1679938;85;21024;-69
2022/05/23 04:38:25;;;;;;;2.95;2.30;;;;;;;12.09;73.26;99362.25;1683068;83;21822;-70
2022/05/23 04:40:52;;;;;;;2.20;1.92;;;;;;;12.07;73.09;99361.58;1657712;85;21365;-70
2022/05/23 04:43:19;;;;;;;3.67;1.85;;;;;;;12.08;72.99;99366.72;1675571;83;21442;-69
2022/05/23 04:45:47;;;;;;;2.30;1.90;;;;;;;12.08;72.93;99365.88;1682032;85;21437;-70
2022/05/23 04:51:11;;;;;;;3.58;2.12;;;;;;;12.03;72.70;99367.16;1680139;83;21823;-72
2022/05/23 04:53:40;;;;;;;2.37;1.90;;;;;;;12.00;72.68;99370.63;1676802;83;21525;-70
2022/05/23 04:56:12;;;;;;;2.30;1.98;;;;;;;12.01;72.75;99374.93;1693448;83;21030;-70
2022/05/23 04:58:38;;;;;;;2.95;1.87;;;;;;;12.02;72.71;99376.59;1682799;85;20971;-71
2022/05/23 05:01:06;;;;;;;3.62;2.25;;;;;;;12.03;72.69;99372.95;1659463;85;21109;-70
2022/05/23 05:03:33;;;;;;;2.85;2.10;;;;;;;12.03;72.47;99373.78;1665293;85;21918;-70
2022/05/23 05:06:00;;;;;;;4.97;2.17;;;;;;;12.03;72.22;99376.42;1656382;86;21381;-70
2022/05/23 05:08:28;;;;;;;4.78;2.15;;;;;;;12.07;72.25;99388.88;1727661;82;20956;-69
2022/05/23 05:11:01;;;;;;;2.85;2.08;;;;;;;12.09;72.17;99379.45;1727222;81;21109;-70
2022/05/23 05:13:33;;;;;;;4.85;3.08;;;;;;;12.13;72.20;99382.94;1729265;81;20952;-69
2022/05/23 05:16:06;;;;;;;4.00;2.45;;;;;;;12.18;72.31;99389.94;1725728;81;21797;-69
2022/05/23 05:18:35;;;;;;;2.58;2.05;;;;;;;12.23;72.30;99384.16;1689483;84;21036;-70
2022/05/23 05:21:10;;;;;;;3.72;2.87;;;;;;;12.26;72.19;99385.19;1703175;83;21454;-70
2022/05/23 05:23:47;;;;;;;3.70;2.33;;;;;;;12.27;72.15;99390.33;1684202;83;21041;-69
2022/05/23 05:26:22;;;;;;;4.42;3.67;;;;;;;12.29;72.10;99395.45;1659767;86;20981;-69
2022/05/23 05:28:50;;;;;;;3.10;2.75;;;;;;;12.26;72.08;99394.45;1727188;81;22427;-70
2022/05/23 05:31:31;;;;;;;3.60;2.70;;;;;;;12.28;72.17;99397.28;1710433;81;21020;-70
2022/05/23 05:34:09;;;;;;;3.00;2.20;;;;;;;12.32;72.23;99399.11;1704572;84;21144;-71
2022/05/23 05:36:41;;;;;;;3.52;2.22;;;;;;;12.35;72.34;99394.81;1700713;83;21008;-69
2022/05/23 05:39:08;;;;;;;2.70;2.10;;;;;;;12.40;72.34;99399.66;1708153;84;20956;-70
2022/05/23 05:41:46;;;;;;;2.65;2.20;;;;;;;12.43;72.31;99392.70;1695864;83;21961;-71
2022/05/23 05:44:18;;;;;;;5.78;2.20;;;;;;;12.44;72.27;99391.72;1705805;84;21051;-70
2022/05/23 05:46:50;;;;;;;2.33;1.90;;;;;;;12.45;72.10;99399.53;1708880;82;21510;-71
2022/05/23 05:49:23;;;;;;;2.90;2.27;;;;;;;12.46;71.94;99399.86;1707104;84;20965;-70
2022/05/23 05:51:51;;;;;;;2.37;2.00;;;;;;;12.52;71.92;99399.22;1708505;82;21037;-71
2022/05/23 05:54:24;;;;;;;3.65;2.00;;;;;;;12.58;71.76;99395.12;1656890;85;21856;-71
2022/05/23 05:56:53;;;;;;;2.85;1.90;;;;;;;12.66;71.67;99396.48;1649162;86;21378;-71
2022/05/23 05:59:19;;;;;;;3.30;1.90;;;;;;;12.72;71.24;99398.97;1709420;83;20960;-71
2022/05/23 06:01:47;;;;;;;2.40;1.90;;;;;;;12.74;70.78;99404.47;1685611;84;21069;-71
2022/05/23 06:04:14;;;;;;;2.50;1.80;;;;;;;12.75;70.53;99398.18;1705079;82;21510;-71
2022/05/23 06:12:17;;;;;;;3.20;1.90;;;;;;;12.81;69.98;99411.27;1673096;84;21593;-73
2022/05/23 06:14:45;;;;;;;4.30;2.20;;;;;;;12.86;69.96;99412.96;1671469;84;21019;-72
2022/05/23 06:17:12;;;;;;;3.08;2.10;;;;;;;12.86;69.83;99409.81;1697648;83;20976;-71
2022/05/23 06:19:45;;;;;;;2.70;2.33;;;;;;;12.90;69.82;99412.96;1708568;82;21849;-72
2022/05/23 06:22:23;;;;;;;6.03;3.50;;;;;;;12.94;69.66;99416.97;1696114;83;21108;-72
2022/05/23 06:25:05;;;;;;;5.80;3.20;;;;;;;12.94;69.66;99418.30;1698109;83;21044;-71
2022/05/23 06:27:32;;;;;;;4.33;2.58;;;;;;;12.89;69.57;99416.11;1698647;83;21084;-72
2022/05/23 06:30:07;;;;;;;6.10;2.30;;;;;;;12.90;69.59;99416.94;1703191;83;21546;-72
2022/05/23 06:32:36;;;;;;;3.10;2.10;;;;;;;12.91;69.73;99415.94;1711367;82;21830;-73
2022/05/23 06:35:07;;;;;;;4.22;1.98;;;;;;;12.95;69.56;99410.67;1713077;83;21023;-70
2022/05/23 06:37:36;;;;;;;2.98;1.90;;;;;;;12.94;69.45;99409.02;1716428;82;21047;-68
2022/05/23 06:40:07;;;;;;;3.72;2.20;;;;;;;12.95;69.55;99413.82;1660839;85;21067;-69
2022/05/23 06:42:38;;;;;;;2.40;1.72;;;;;;;12.99;69.76;99413.33;1616542;85;21199;-71
2022/05/23 06:45:10;;;;;;;2.75;2.10;;;;;;;13.07;69.79;99414.69;1636735;86;22004;-72
2022/05/23 06:47:40;;;;;;;5.42;2.00;;;;;;;13.17;69.66;99421.17;1667029;85;21055;-72
2022/05/23 06:50:15;;;;;;;5.08;2.10;;;;;;;13.26;69.61;99428.69;1667493;85;21027;-71
2022/05/23 06:52:50;;;;;;;3.67;2.00;;;;;;;13.30;69.61;99425.54;1667093;84;21053;-74
2022/05/23 06:55:31;;;;;;;3.02;1.80;;;;;;;13.35;69.57;99425.06;1668164;84;20952;-75
2022/05/23 06:57:58;;;;;;;3.47;2.10;;;;;;;13.41;69.56;99429.23;1671427;84;21996;-75
2022/05/23 07:00:24;;;;;;;3.37;1.98;;;;;;;13.50;69.11;99433.20;1670289;84;21040;-73
2022/05/23 07:02:56;;;;;;;3.00;1.98;;;;;;;13.54;68.63;99435.38;1669130;84;21135;-75
2022/05/23 07:13:49;;;;;;;2.45;2.10;;;;;;;13.72;67.18;99435.23;1661736;84;21093;-71
2022/05/23 07:16:17;;;;;;;4.28;2.30;;;;;;;13.77;66.96;99434.73;1669086;85;21653;-73
2022/05/23 07:18:45;;;;;;;2.65;2.27;;;;;;;13.82;66.87;99437.73;1645127;85;21626;-74
2022/05/23 07:21:20;;;;;;;2.35;2.10;;;;;;;13.82;66.62;99439.06;1669769;84;21067;-77
2022/05/23 07:23:52;;;;;;;2.52;1.95;;;;;;;13.81;66.41;99428.11;1668730;85;21866;-77
2022/05/23 07:26:27;;;;;;;3.85;2.05;;;;;;;13.79;66.32;99443.34;1670142;85;21037;-76
2022/05/23 07:28:57;;;;;;;3.47;1.72;;;;;;;13.84;66.40;99429.10;1671382;84;21069;-74
2022/05/23 07:31:26;;;;;;;7.03;1.67;;;;;;;13.95;66.31;99430.09;1666461;84;21445;-76
2022/05/23 07:33:54;;;;;;;2.12;1.65;;;;;;;14.09;65.97;99426.78;1663046;86;21123;-75
2022/05/23 07:36:21;;;;;;;2.55;1.65;;;;;;;14.28;65.23;99429.08;1652780;86;22842;-72
2022/05/23 07:38:50;;;;;;;2.65;1.75;;;;;;;14.46;64.36;99421.42;1659604;85;21371;-72
2022/05/23 07:41:32;;;;;;;2.87;1.87;;;;;;;14.53;63.70;99421.91;1633967;84;21117;-73
2022/05/23 07:43:59;;;;;;;2.83;1.70;;;;;;;14.69;63.57;99425.02;1661788;86;21577;-71
2022/05/23 07:46:27;;;;;;;4.97;1.72;;;;;;;14.87;62.71;99424.30;1663231;84;21116;-72
2022/05/23 07:48:56;;;;;;;4.67;1.98;;;;;;;15.04;62.49;99424.20;1663623;86;21936;-72
2022/05/23 07:51:24;;;;;;;4.45;1.90;;;;;;;15.18;62.59;99426.97;1661322;84;21124;-71
2022/05/23 08:02:11;;;;;;;2.72;1.70;;;;;;;15.63;60.44;99413.89;1658881;83;21819;-75
2022/05/23 08:04:41;;;;;;;2.30;1.80;;;;;;;15.68;60.11;99415.03;1661342;84;21445;-75
2022/05/23 08:07:09;;;;;;;4.33;2.00;;;;;;;15.74;57.66;99416.16;1666707;85;21016;-75
2022/05/23 08:09:40;;;;;;;4.03;1.90;;;;;;;15.74;57.54;99415.66;1666547;85;21025;-74
2022/05/23 08:12:08;;;;;;;5.55;2.00;;;;;;;15.73;56.65;99420.66;1671268;85;21093;-75
2022/05/23 08:14:35;;;;;;;4.78;1.70;;;;;;;15.73;56.18;99417.17;1702578;83;21914;-72
2022/05/23 08:17:04;;;;;;;3.80;1.87;;;;;;;15.74;56.13;99425.48;1713669;83;21047;-70
2022/05/23 08:19:33;;;;;;;2.37;1.85;;;;;;;15.78;56.36;99425.44;1684089;83;21128;-71
2022/05/23 08:22:02;;;;;;;2.12;1.70;;;;;;;15.92;56.47;99415.83;1652974;86;21037;-72
2022/05/23 08:24:30;;;;;;;3.35;1.62;;;;;;;16.06;55.62;99419.05;1656862;83;21123;-75
2022/05/23 08:26:58;;;;;;;3.75;2.00;;;;;;;16.18;55.76;99414.94;1686742;84;22655;-72
2022/05/23 08:29:26;;;;;;;3.33;1.67;;;;;;;16.28;53.82;99413.34;1677523;83;21051;-72
2022/05/23 08:32:05;;;;;;;2.02;1.60;;;;;;;16.33;52.93;99410.14;1693248;83;21537;-68
2022/05/23 08:34:40;;;;;;;3.00;1.60;;;;;;;16.48;52.57;99403.80;1640307;86;21050;-73
2022/05/23 08:37:08;;;;;;;2.30;1.62;;;;;;;16.68;53.23;99412.58;1663691;84;21527;-72
2022/05/23 08:39:36;;;;;;;5.30;2.02;;;;;;;16.93;52.95;99417.98;1660991;85;21101;-77
2022/05/23 08:42:34;;;;;;;3.75;2.15;;;;;;;16.97;50.59;99411.25;1661886;85;21687;-72
2022/05/23 08:45:23;;;;;;;2.17;1.98;;;;;;;16.97;51.11;99416.58;1643652;84;21090;-72
2022/05/23 08:48:15;;;;;;;2.30;1.60;;;;;;;17.03;51.31;99414.52;1690663;84;21514;-73
2022/05/23 08:51:06;;;;;;;2.90;1.95;;;;;;;17.11;51.52;99413.08;1661442;86;21475;-76
2022/05/23 08:53:45;;;;;;;3.58;1.92;;;;;;;17.19;51.70;99413.99;1686839;83;23344;-82
2022/05/23 08:56:39;;;;;;;3.75;2.12;;;;;;;17.06;51.05;99419.47;1649023;85;22181;-72
2022/05/23 08:59:19;;;;;;;3.85;2.25;;;;;;;16.86;51.50;99422.39;1669789;84;21079;-71
2022/05/23 09:01:49;;;;;;;2.20;2.00;;;;;;;16.90;51.85;99409.03;1669346;84;21062;-73
2022/05/23 09:04:31;;;;;;;2.37;2.00;;;;;;;17.00;51.28;99412.23;1634781;85;21084;-69
2022/05/23 09:06:58;;;;;;;4.03;1.70;;;;;;;17.14;52.15;99415.88;1659781;85;22784;-75
2022/05/23 09:09:31;;;;;;;3.10;1.87;;;;;;;17.36;50.94;99417.55;1666915;84;20982;-74
2022/05/23 09:12:11;;;;;;;10.08;5.78;;;;;;;17.52;51.10;99415.67;1675131;84;21086;-71
2022/05/23 09:14:41;;;;;;;4.28;1.80;;;;;;;17.68;50.13;99418.93;1639244;84;21163;-71
2022/05/23 09:17:22;;;;;;;5.60;2.00;;;;;;;17.88;48.00;99427.67;1662663;86;21047;-71
2022/05/23 09:20:05;;;;;;;3.33;1.80;;;;;;;17.93;47.33;99423.89;1662298;84;22955;-73
2022/05/23 09:22:52;;;;;;;4.80;1.67;;;;;;;17.93;46.93;99426.56;1655393;86;21095;-71
2022/05/23 09:25:26;;;;;;;2.10;1.40;;;;;;;17.99;46.81;99423.14;1651219;85;21049;-71
2022/05/23 09:28:34;;;;;;;2.67;1.60;;;;;;;18.00;45.73;99422.94;1659240;84;21259;-71
2022/05/23 09:31:20;;;;;;;64.40;50.65;;;;;;;18.11;46.63;99418.09;1630627;86;21061;-72
2022/05/23 09:33:50;;;;;;;5.90;3.33;;;;;;;18.25;45.10;99412.66;1714329;82;23484;-73
2022/05/23 09:36:38;;;;;;;4.90;1.95;;;;;;;18.34;45.19;99422.70;1718998;82;21078;-73
2022/05/23 09:39:10;;;;;;;2.17;1.50;;;;;;;18.45;45.27;99424.83;1723612;82;21096;-75
2022/05/23 09:50:09;;;;;;;2.67;1.62;;;;;;;18.58;43.72;99431.59;1725754;81;21111;-73
2022/05/23 09:52:48;;;;;;;2.17;1.50;;;;;;;18.51;43.62;99425.36;1723187;82;20987;-72
2022/05/23 09:55:28;;;;;;;2.62;1.50;;;;;;;18.49;43.41;99432.77;1726069;83;21057;-74
2022/05/23 09:57:57;;;;;;;2.10;1.62;;;;;;;18.47;43.26;99425.45;1728427;82;21050;-75
2022/05/23 10:00:32;;;;;;;4.20;1.32;;;;;;;18.51;43.34;99423.20;1728904;81;22561;-72
2022/05/23 10:03:15;;;;;;;3.47;1.50;;;;;;;18.60;43.31;99415.34;1723322;82;21066;-75
2022/05/23 10:05:46;;;;;;;3.25;2.42;;;;;;;18.68;43.73;99409.87;1724002;81;21058;-74
2022/05/23 10:08:32;;;;;;;5.85;2.45;;;;;;;18.85;43.41;99412.53;1685363;83;21063;-73
2022/05/23 10:11:03;;;;;;;5.12;1.80;;;;;;;19.04;42.85;99411.48;1659308;84;21123;-74
2022/05/23 10:13:38;;;;;;;4.42;1.62;;;;;;;19.28;41.48;99406.09;1671512;83;22489;-72
2022/05/23 10:16:18;;;;;;;7.30;1.60;;;;;;;19.44;41.61;99413.26;1686745;85;21041;-75
2022/05/23 10:18:57;;;;;;;7.37;1.50;;;;;;;19.69;40.62;99404.70;1657393;85;21028;-74
2022/05/23 10:21:37;;;;;;;5.53;1.37;;;;;;;19.94;38.04;99400.88;1687264;84;21029;-73
2022/05/23 10:24:11;;;;;;;2.87;1.45;;;;;;;20.09;36.26;99398.01;1723008;81;21050;-73
2022/05/23 10:27:00;;;;;;;6.67;1.45;;;;;;;19.98;35.89;99393.58;1723070;81;21911;-71
2022/05/23 10:29:32;;;;;;;3.05;1.50;;;;;;;19.91;35.30;99392.75;1744923;80;21075;-73
2022/05/23 10:32:09;;;;;;;2.72;1.35;;;;;;;20.03;36.37;99393.45;1703265;81;21059;-75
2022/05/23 10:34:53;;;;;;;2.65;1.65;;;;;;;20.14;36.53;99391.49;1712030;82;21469;-76
2022/05/23 10:37:24;;;;;;;;;;;;;;;20.15;36.62;99392.62;1714334;83;21519;-75
2022/05/23 10:43:06;;;;;;;3.10;1.37;;;;;;;20.03;36.29;99400.16;1664556;84;20940;-74
2022/05/23 10:45:56;;;;;;;3.40;1.40;;;;;;;19.91;35.86;99394.08;1701281;83;21022;-75
2022/05/23 10:49:11;;;;;;;2.02;1.25;;;;;;;19.67;35.35;99398.17;1710382;82;21575;-73
2022/05/23 10:52:25;;;;;;;6.53;3.30;;;;;;;19.35;36.04;99404.27;1710272;82;21095;-73
2022/05/23 10:55:14;;;;;;;7.92;2.85;;;;;;;19.08;35.54;99402.84;1713738;83;22249;-74
2022/05/23 10:58:08;;;;;;;7.42;4.25;;;;;;;18.85;35.20;99413.05;1712274;83;21036;-75
2022/05/23 11:00:45;;;;;;;6.35;1.82;;;;;;;18.69;36.49;99408.84;1706228;82;21051;-78
2022/05/23 11:03:29;;;;;;;2.95;1.42;;;;;;;18.54;37.28;99418.30;1691271;83;20999;-77
2022/05/23 11:06:35;;;;;;;2.33;1.40;;;;;;;18.40;37.98;99423.23;1708560;83;21043;-74
2022/05/23 11:09:44;;;;;;;4.67;1.95;;;;;;;18.22;39.31;99430.91;1701032;82;21851;-73
2022/05/23 11:12:40;;;;;;;3.17;1.40;;;;;;;18.03;40.59;99437.23;1709916;83;20997;-71
2022/05/23 11:15:40;;;;;;;3.15;1.40;;;;;;;17.73;40.21;99441.90;1712893;82;21043;-70
2022/05/23 11:18:45;;;;;;;3.80;1.50;;;;;;;17.46;41.92;99436.76;1683972;82;21086;-75
2022/05/23 11:21:20;;;;;;;6.00;1.67;;;;;;;17.33;42.84;99441.96;1726816;80;21027;-73
2022/05/23 11:23:59;;;;;;;4.45;2.22;;;;;;;17.17;43.24;99441.66;1702861;83;22571;-74
2022/05/23 11:26:52;;;;;;;3.62;2.30;;;;;;;17.11;43.55;99446.43;1709745;82;21032;-70
2022/05/23 11:34:47;;;;;;;3.67;1.55;;;;;;;16.99;42.99;99455.93;1695555;82;21493;-74
2022/05/23 11:40:02;;;;;;;5.55;1.85;;;;;;;16.92;42.54;99452.84;1697181;82;21108;-77
2022/05/23 11:42:43;;;;;;;5.47;1.45;;;;;;;16.91;42.61;99456.02;1703728;82;21051;-74
2022/05/23 11:48:52;;;;;;;3.75;1.60;;;;;;;16.88;42.26;99448.37;1701539;83;21027;-75
2022/05/23 11:51:37;;;;;;;3.67;1.50;;;;;;;16.93;42.55;99444.66;1692511;82;21839;-72
2022/05/23 11:54:15;;;;;;;3.70;1.72;;;;;;;16.95;41.90;99446.63;1712762;82;21455;-72
2022/05/23 11:57:05;;;;;;;5.33;1.47;;;;;;;16.96;41.73;99442.12;1705051;82;21226;-72
2022/05/23 11:59:37;;;;;;;3.30;1.60;;;;;;;17.06;41.37;99443.98;1702009;82;21008;-71
2022/05/23 12:02:14;;;;;;;3.45;1.70;;;;;;;17.25;41.49;99442.06;1686180;82;21080;-73
2022/05/23 12:04:56;;;;;;;1.72;1.20;;;;;;;17.43;41.07;99437.66;1700948;83;22297;-73
2022/05/23 12:07:42;;;;;;;5.30;1.60;;;;;;;17.59;40.54;99448.11;1689139;83;21565;-73
2022/05/23 12:10:28;;;;;;;3.40;1.42;;;;;;;17.73;40.66;99454.43;1692025;83;20959;-72
2022/05/23 12:13:00;;;;;;;5.87;1.60;;;;;;;17.70;40.16;99462.32;1701184;83;21521;-74
2022/05/23 12:15:48;;;;;;;3.20;1.65;;;;;;;17.39;40.83;99463.08;1702239;82;21142;-71
2022/05/23 12:18:29;;;;;;;3.52;1.30;;;;;;;17.16;42.00;99474.70;1706453;82;21838;-71
2022/05/23 12:21:00;;;;;;;5.22;1.60;;;;;;;17.05;42.73;99475.17;1699417;83;20930;-73
2022/05/23 12:23:47;;;;;;;2.80;1.52;;;;;;;16.92;43.06;99468.84;1699220;83;21037;-71
2022/05/23 12:26:29;;;;;;;5.35;1.57;;;;;;;16.76;43.74;99462.67;1702043;83;21082;-71
2022/05/23 12:29:00;;;;;;;2.33;1.42;;;;;;;16.60;44.13;99463.67;1704046;83;21017;-72
2022/05/23 12:31:29;;;;;;;3.92;1.70;;;;;;;16.49;45.14;99458.76;1702160;82;22467;-70
2022/05/23 12:34:07;;;;;;;3.12;1.40;;;;;;;16.44;45.41;99461.66;1720742;81;21030;-71
2022/05/23 12:36:47;;;;;;;3.72;1.70;;;;;;;16.40;45.47;99457.69;1720714;81;20999;-71
2022/05/23 12:39:41;;;;;;;5.12;1.90;;;;;;;16.28;45.39;99459.47;1726516;81;21059;-69
2022/05/23 12:42:23;;;;;;;3.62;1.62;;;;;;;16.20;45.51;99460.04;1719031;81;21024;-71
2022/05/23 12:45:16;;;;;;;10.08;1.60;;;;;;;16.16;46.02;99459.59;1720164;81;21921;-72
2022/05/23 12:48:04;;;;;;;4.42;1.50;;;;;;;16.11;46.26;99461.12;1680744;83;20990;-71
2022/05/23 12:50:58;;;;;;;3.42;1.70;;;;;;;16.10;46.56;99464.80;1661721;84;21476;-73
2022/05/23 12:53:51;;;;;;;7.00;1.73;;;;;;;16.08;46.65;99460.16;1649323;85;21046;-72
2022/05/23 12:56:32;;;;;;;3.33;1.70;;;;;;;16.06;46.76;99456.84;1650805;84;21098;-72
2022/05/23 12:59:42;;;;;;;3.60;1.80;;;;;;;16.03;46.51;99465.53;1666033;84;22332;-70
2022/05/23 13:02:14;;;;;;;4.50;1.60;;;;;;;15.96;46.52;99465.91;1662573;84;21194;-72
2022/05/23 13:05:02;;;;;;;4.20;1.67;;;;;;;15.94;46.96;99468.44;1675237;84;20981;-73
2022/05/23 13:07:50;;;;;;;5.00;1.70;;;;;;;15.93;46.97;99470.78;1652196;85;21018;-72
2022/05/23 13:10:27;;;;;;;4.62;1.75;;;;;;;15.92;46.81;99467.29;1671787;85;20985;-69
2022/05/23 13:13:12;;;;;;;5.55;1.67;;;;;;;15.89;46.75;99464.95;1632526;86;21843;-72
2022/05/23 13:15:38;;;;;;;3.55;1.80;;;;;;;15.89;47.05;99460.97;1685242;83;20998;-72